createdAt,value
2023-02-23T00:02:07.742Z,36.38
2023-02-23T00:04:35.678Z,37.85
2023-02-23T00:07:02.448Z,29.15
2023-02-23T00:09:35.367Z,23.45
2023-02-23T00:12:08.404Z,30.98
2023-02-23T00:14:37.923Z,29.63
2023-02-23T00:17:11.085Z,27.73
2023-02-23T00:19:40.072Z,37.08
2023-02-23T00:22:07.107Z,26.73
2023-02-23T00:24:36.641Z,36.10
2023-02-23T00:27:06.495Z,31.40
2023-02-23T00:29:41.061Z,31.63
2023-02-23T00:32:07.958Z,34.33
2023-02-23T00:34:35.791Z,31.02
2023-02-23T00:37:02.618Z,25.77
2023-02-23T00:39:29.583Z,31.10
2023-02-23T00:42:03.776Z,30.73
2023-02-23T00:44:32.411Z,31.45
2023-02-23T00:46:59.617Z,36.10
2023-02-23T00:49:26.256Z,26.50
2023-02-23T00:51:54.276Z,31.38
2023-02-23T00:54:22.170Z,30.33
2023-02-23T00:56:50.847Z,31.88
2023-02-23T00:59:18.264Z,33.90
2023-02-23T01:01:45.465Z,32.70
2023-02-23T01:04:13.513Z,26.17
2023-02-23T01:06:41.841Z,31.48
2023-02-23T01:09:11.477Z,33.30
2023-02-23T01:11:38.440Z,34.03
2023-02-23T01:14:05.394Z,26.17
2023-02-23T01:16:34.240Z,28.05
2023-02-23T01:19:04.495Z,30.05
2023-02-23T01:21:34.851Z,37.15
2023-02-23T01:24:02.462Z,30.27
2023-02-23T01:26:34.551Z,38.90
2023-02-23T01:29:05.225Z,36.53
2023-02-23T01:31:32.678Z,31.48
2023-02-23T01:34:03.640Z,34.35
2023-02-23T01:36:37.104Z,31.00
2023-02-23T01:39:07.836Z,31.65
2023-02-23T01:41:37.371Z,33.53
2023-02-23T01:44:23.038Z,28.42
2023-02-23T01:46:50.770Z,35.30
2023-02-23T01:49:22.081Z,39.50
2023-02-23T01:51:52.721Z,37.25
2023-02-23T01:54:24.266Z,34.63
2023-02-23T01:57:00.818Z,29.90
2023-02-23T01:59:36.992Z,31.92
2023-02-23T02:02:06.513Z,29.85
2023-02-23T02:04:45.933Z,28.98
2023-02-23T02:07:16.175Z,32.85
2023-02-23T02:10:04.345Z,37.35
2023-02-23T02:12:31.251Z,30.17
2023-02-23T02:15:00.275Z,36.65
2023-02-23T02:18:09.544Z,34.63
2023-02-23T02:20:57.378Z,30.92
2023-02-23T02:23:36.936Z,36.83
2023-02-23T02:26:18.695Z,33.67
2023-02-23T02:28:48.337Z,37.80
2023-02-23T02:31:45.796Z,37.17
2023-02-23T02:34:12.366Z,34.15
2023-02-23T02:37:17.468Z,28.40
2023-02-23T02:40:15.215Z,33.20
2023-02-23T02:43:09.350Z,41.53
2023-02-23T02:45:54.071Z,35.58
2023-02-23T02:48:34.686Z,35.35
2023-02-23T02:51:14.064Z,40.08
2023-02-23T02:53:45.605Z,30.95
2023-02-23T02:56:19.954Z,33.60
2023-02-23T02:58:50.429Z,34.75
2023-02-23T03:01:37.596Z,39.45
2023-02-23T03:04:43.959Z,34.70
2023-02-23T03:07:54.813Z,35.67
2023-02-23T03:10:58.608Z,33.47
2023-02-23T03:13:57.631Z,32.65
2023-02-23T03:16:53.263Z,40.38
2023-02-23T03:19:50.847Z,33.85
2023-02-23T03:22:57.774Z,35.10
2023-02-23T03:25:51.465Z,30.67
2023-02-23T03:28:52.896Z,31.90
2023-02-23T03:31:59.719Z,34.25
2023-02-23T03:34:55.649Z,32.67
2023-02-23T03:38:08.413Z,37.28
2023-02-23T03:40:57.842Z,27.35
2023-02-23T03:43:52.201Z,36.95
2023-02-23T03:46:39.128Z,32.08
2023-02-23T03:49:28.542Z,45.42
2023-02-23T03:52:20.948Z,38.20
2023-02-23T03:55:13.478Z,35.42
2023-02-23T03:58:01.292Z,38.50
2023-02-23T04:00:53.449Z,30.08
2023-02-23T04:03:40.189Z,35.25
2023-02-23T04:06:30.308Z,36.40
2023-02-23T04:09:20.271Z,37.88
2023-02-23T04:12:11.266Z,38.65
2023-02-23T04:15:02.104Z,33.13
2023-02-23T04:19:57.168Z,30.23
2023-02-23T04:22:27.921Z,37.13
2023-02-23T04:24:55.583Z,36.17
2023-02-23T04:27:22.601Z,45.45
2023-02-23T04:29:49.166Z,41.08
2023-02-23T04:32:18.038Z,37.60
2023-02-23T04:34:45.410Z,40.15
2023-02-23T04:37:12.869Z,37.80
2023-02-23T04:39:39.884Z,34.30
2023-02-23T04:42:06.618Z,33.85
2023-02-23T04:44:33.154Z,36.05
2023-02-23T04:46:59.699Z,38.78
2023-02-23T04:49:26.838Z,39.42
2023-02-23T04:51:53.636Z,40.72
2023-02-23T04:54:21.586Z,35.85
2023-02-23T04:56:48.456Z,36.42
2023-02-23T04:59:15.492Z,42.42
2023-02-23T05:01:43.923Z,35.42
2023-02-23T05:04:13.195Z,32.95
2023-02-23T05:06:40.040Z,40.53
2023-02-23T05:09:07.204Z,37.00
2023-02-23T05:11:33.997Z,32.10
2023-02-23T05:14:00.583Z,38.20
2023-02-23T05:16:27.718Z,39.00
2023-02-23T05:18:54.289Z,46.10
2023-02-23T05:21:21.406Z,37.90
2023-02-23T05:23:49.348Z,35.20
2023-02-23T05:26:16.102Z,41.53
2023-02-23T05:28:43.136Z,37.60
2023-02-23T05:31:11.590Z,36.17
2023-02-23T05:33:42.952Z,42.58
2023-02-23T05:36:13.639Z,33.88
2023-02-23T05:38:41.575Z,40.88
2023-02-23T05:41:14.085Z,40.65
2023-02-23T05:43:42.015Z,40.95
2023-02-23T05:46:16.098Z,37.75
2023-02-23T05:48:43.435Z,36.88
2023-02-23T05:51:14.053Z,36.88
2023-02-23T05:53:40.811Z,39.47
2023-02-23T05:56:10.965Z,42.67
2023-02-23T05:58:37.789Z,42.13
2023-02-23T06:01:05.045Z,35.85
2023-02-23T06:03:31.706Z,38.15
2023-02-23T06:05:58.936Z,41.97
2023-02-23T06:08:26.520Z,36.58
2023-02-23T06:10:53.477Z,36.15
2023-02-23T06:13:21.920Z,34.03
2023-02-23T06:15:49.626Z,35.97
2023-02-23T06:18:17.805Z,37.42
2023-02-23T06:20:46.074Z,32.95
2023-02-23T06:23:13.460Z,41.10
2023-02-23T06:25:41.442Z,36.67
2023-02-23T06:28:09.250Z,36.85
2023-02-23T06:30:37.034Z,34.97
2023-02-23T06:33:05.615Z,33.60
2023-02-23T06:35:33.696Z,34.40
2023-02-23T06:38:00.853Z,35.67
2023-02-23T06:40:28.600Z,40.92
2023-02-23T06:42:55.405Z,35.85
2023-02-23T06:45:22.033Z,35.17
2023-02-23T06:47:49.044Z,39.55
2023-02-23T06:50:17.363Z,31.83
2023-02-23T06:52:44.049Z,34.40
2023-02-23T06:55:10.754Z,42.05
2023-02-23T06:57:37.388Z,33.72
2023-02-23T07:00:04.726Z,29.23
2023-02-23T07:02:33.658Z,33.17
2023-02-23T07:05:00.292Z,39.50
2023-02-23T07:07:30.104Z,37.15
2023-02-23T07:09:58.588Z,42.35
2023-02-23T07:12:32.369Z,38.50
2023-02-23T07:14:59.233Z,39.28
2023-02-23T07:17:26.065Z,33.53
2023-02-23T07:20:18.985Z,38.95
2023-02-23T07:22:45.024Z,43.03
2023-02-23T07:25:14.117Z,38.53
2023-02-23T07:27:42.350Z,35.35
2023-02-23T07:30:09.719Z,34.90
2023-02-23T07:32:36.422Z,41.03
2023-02-23T07:35:04.983Z,37.85
2023-02-23T07:37:33.623Z,33.50
2023-02-23T07:40:01.933Z,34.15
2023-02-23T07:42:29.632Z,47.47
2023-02-23T07:44:56.558Z,38.80
2023-02-23T07:47:30.605Z,42.58
2023-02-23T07:49:58.668Z,35.30
2023-02-23T07:52:25.678Z,38.55
2023-02-23T07:54:54.024Z,38.47
2023-02-23T07:57:23.364Z,35.42
2023-02-23T07:59:51.665Z,41.70
2023-02-23T08:02:18.498Z,33.85
2023-02-23T08:04:45.487Z,40.55
2023-02-23T08:07:12.238Z,35.10
2023-02-23T08:09:39.360Z,35.00
2023-02-23T08:12:06.424Z,32.22
2023-02-23T08:14:33.119Z,38.55
2023-02-23T08:17:02.001Z,32.17
2023-02-23T08:19:39.419Z,37.22
2023-02-23T08:22:12.051Z,29.83
2023-02-23T08:24:45.463Z,35.13
2023-02-23T08:27:12.902Z,28.95
2023-02-23T08:29:42.118Z,34.97
2023-02-23T08:32:11.997Z,30.85
2023-02-23T08:34:51.261Z,33.65
2023-02-23T08:37:17.785Z,31.65
2023-02-23T08:39:44.448Z,34.00
2023-02-23T08:42:10.995Z,32.88
2023-02-23T08:44:38.654Z,33.35
2023-02-23T08:47:22.418Z,32.13
2023-02-23T08:50:15.784Z,27.13
2023-02-23T08:58:23.879Z,28.63
2023-02-23T09:01:23.945Z,37.17
2023-02-23T09:03:56.482Z,29.40
2023-02-23T09:07:09.904Z,34.45
2023-02-23T09:09:52.188Z,30.17
2023-02-23T09:12:19.026Z,30.67
2023-02-23T09:14:55.724Z,30.73
2023-02-23T09:17:48.202Z,34.95
2023-02-23T09:20:23.587Z,32.55
2023-02-23T09:22:50.150Z,32.78
2023-02-23T09:25:23.303Z,36.40
2023-02-23T09:28:25.438Z,30.02
2023-02-23T09:31:00.222Z,31.38
2023-02-23T09:33:28.931Z,32.78
2023-02-23T09:35:55.577Z,36.53
2023-02-23T09:38:37.344Z,34.03
2023-02-23T09:41:26.138Z,34.38
2023-02-23T09:44:06.018Z,31.13
2023-02-23T09:46:50.665Z,32.25
2023-02-23T09:49:21.088Z,29.40
2023-02-23T09:51:54.159Z,30.38
2023-02-23T09:54:22.974Z,28.13
2023-02-23T09:56:51.190Z,28.90
2023-02-23T09:59:21.572Z,31.63
2023-02-23T10:01:50.420Z,29.10
2023-02-23T10:04:43.720Z,32.10
2023-02-23T10:07:45.748Z,34.70
2023-02-23T10:10:15.429Z,33.83
2023-02-23T10:12:59.981Z,29.35
2023-02-23T10:15:44.027Z,29.02
2023-02-23T10:18:54.079Z,31.33
2023-02-23T10:21:23.739Z,27.98
2023-02-23T10:24:13.353Z,29.38
2023-02-23T10:26:44.337Z,27.27
2023-02-23T10:29:36.107Z,30.88
2023-02-23T10:32:25.095Z,25.45
2023-02-23T10:34:57.015Z,31.02
2023-02-23T10:37:25.739Z,34.30
2023-02-23T10:39:53.266Z,31.38
2023-02-23T10:42:29.156Z,36.42
2023-02-23T10:44:57.292Z,29.08
2023-02-23T10:47:35.911Z,27.98
2023-02-23T10:50:04.214Z,33.53
2023-02-23T10:52:42.232Z,30.50
2023-02-23T10:55:24.465Z,26.50
2023-02-23T10:58:02.495Z,26.77
2023-02-23T11:00:33.579Z,26.17
2023-02-23T11:05:44.570Z,26.65
2023-02-23T11:08:19.995Z,25.63
2023-02-23T11:11:20.564Z,30.05
2023-02-23T11:13:54.637Z,26.95
2023-02-23T11:16:23.903Z,29.60
2023-02-23T11:19:02.583Z,27.23
2023-02-23T11:21:35.200Z,23.90
2023-02-23T11:24:20.795Z,29.00
2023-02-23T11:26:52.029Z,26.88
2023-02-23T11:32:09.841Z,25.83
2023-02-23T11:34:49.372Z,26.20
2023-02-23T11:37:23.353Z,29.40
2023-02-23T11:39:59.992Z,29.83
2023-02-23T11:42:33.898Z,28.38
2023-02-23T11:45:23.100Z,25.10
2023-02-23T11:47:56.231Z,23.13
2023-02-23T11:50:36.091Z,26.42
2023-02-23T11:53:25.074Z,32.33
2023-02-23T11:55:55.226Z,26.15
2023-02-23T11:58:36.200Z,26.30
2023-02-23T12:01:14.402Z,26.05
2023-02-23T12:03:49.367Z,29.77
2023-02-23T12:06:39.881Z,26.00
2023-02-23T12:09:21.922Z,26.92
2023-02-23T12:12:07.323Z,27.42
2023-02-23T12:14:42.507Z,26.27
2023-02-23T12:17:18.948Z,24.85
2023-02-23T12:19:51.432Z,26.48
2023-02-23T12:22:22.302Z,26.02
2023-02-23T12:25:10.818Z,33.47
2023-02-23T12:27:46.527Z,29.65
2023-02-23T12:30:57.777Z,27.75
2023-02-23T12:33:37.616Z,29.77
2023-02-23T12:36:12.350Z,24.25
2023-02-23T12:38:52.114Z,25.60
2023-02-23T12:41:37.029Z,26.95
2023-02-23T12:44:25.052Z,26.58
2023-02-23T12:47:03.380Z,31.60
2023-02-23T12:49:51.363Z,28.08
2023-02-23T12:52:25.511Z,28.27
2023-02-23T12:54:52.295Z,26.88
2023-02-23T12:57:57.217Z,28.80
2023-02-23T13:00:36.458Z,29.10
2023-02-23T13:03:23.108Z,25.35
2023-02-23T13:06:37.012Z,32.70
2023-02-23T13:09:39.791Z,26.20
2023-02-23T13:12:24.113Z,25.75
2023-02-23T13:15:03.081Z,27.40
2023-02-23T13:17:54.543Z,32.40
2023-02-23T13:20:37.512Z,30.48
2023-02-23T13:23:32.387Z,31.23
2023-02-23T13:26:24.846Z,29.05
2023-02-23T13:28:59.896Z,30.55
2023-02-23T13:31:35.871Z,30.25
2023-02-23T13:34:17.051Z,29.63
2023-02-23T13:36:47.389Z,27.58
2023-02-23T13:39:51.886Z,31.33
2023-02-23T13:42:34.906Z,35.25
2023-02-23T13:45:25.888Z,29.92
2023-02-23T13:48:24.551Z,28.67
2023-02-23T13:51:21.294Z,33.75
2023-02-23T13:54:02.153Z,32.10
2023-02-23T13:56:35.818Z,28.80
2023-02-23T13:59:06.829Z,33.28
2023-02-23T14:01:38.144Z,36.85
2023-02-23T14:06:41.196Z,34.17
2023-02-23T14:09:11.814Z,29.45
2023-02-23T14:11:46.301Z,29.50
2023-02-23T14:14:36.418Z,29.83
2023-02-23T14:17:15.250Z,29.08
2023-02-23T14:19:57.163Z,32.05
2023-02-23T14:22:23.981Z,28.67
2023-02-23T14:25:28.400Z,30.60
2023-02-23T14:28:00.953Z,33.08
2023-02-23T14:30:45.528Z,35.00
2023-02-23T14:33:37.911Z,31.73
2023-02-23T14:36:27.092Z,34.28
2023-02-23T14:38:57.652Z,34.80
2023-02-23T14:41:26.874Z,37.88
2023-02-23T14:44:00.555Z,36.67
2023-02-23T14:46:31.830Z,36.03
2023-02-23T14:49:12.627Z,38.67
2023-02-23T14:51:42.407Z,34.03
2023-02-23T14:54:33.584Z,37.10
2023-02-23T14:57:02.401Z,38.25
2023-02-23T14:59:37.294Z,35.80
2023-02-23T15:02:26.615Z,41.88
2023-02-23T15:04:55.449Z,43.83
2023-02-23T15:07:32.483Z,36.78
2023-02-23T15:10:00.636Z,35.90
2023-02-23T15:12:30.897Z,44.35
2023-02-23T15:15:02.843Z,37.70
2023-02-23T15:17:32.741Z,38.92
2023-02-23T15:20:15.442Z,38.55
2023-02-23T15:22:46.942Z,39.70
2023-02-23T15:25:20.527Z,43.83
2023-02-23T15:27:48.551Z,34.28
2023-02-23T15:30:32.402Z,39.13
2023-02-23T15:33:11.273Z,43.15
2023-02-23T15:35:54.111Z,43.80
2023-02-23T15:38:45.748Z,40.83
2023-02-23T15:41:37.024Z,40.95
2023-02-23T15:44:14.681Z,44.53
2023-02-23T15:46:46.134Z,44.15
2023-02-23T15:51:51.338Z,41.38
2023-02-23T15:54:28.196Z,42.83
2023-02-23T15:57:03.112Z,42.38
2023-02-23T15:59:35.954Z,39.55
2023-02-23T16:02:13.481Z,46.38
2023-02-23T16:04:44.760Z,49.25
2023-02-23T16:07:23.819Z,45.60
2023-02-23T16:10:05.039Z,43.63
2023-02-23T16:12:36.317Z,47.13
2023-02-23T16:15:08.908Z,49.85
2023-02-23T16:17:53.079Z,54.85
2023-02-23T16:22:58.210Z,54.30
2023-02-23T16:25:27.639Z,51.15
2023-02-23T16:28:21.119Z,51.70
2023-02-23T16:30:59.638Z,54.55
2023-02-23T16:33:54.669Z,57.00
2023-02-23T16:36:25.051Z,60.80
2023-02-23T16:39:02.568Z,55.85
2023-02-23T16:41:31.804Z,59.35
2023-02-23T16:44:02.425Z,59.45
2023-02-23T16:46:33.481Z,59.42
2023-02-23T16:49:05.382Z,63.08
2023-02-23T16:51:34.782Z,57.17
2023-02-23T16:54:04.389Z,62.97
2023-02-23T16:56:31.361Z,72.05
2023-02-23T16:59:03.110Z,70.72
2023-02-23T17:09:48.831Z,74.28
2023-02-23T17:15:08.929Z,83.55
2023-02-23T17:17:36.174Z,89.57
2023-02-23T17:20:14.822Z,70.90
2023-02-23T17:25:24.987Z,98.15
2023-02-23T17:27:56.933Z,94.72
2023-02-23T17:30:32.105Z,86.50
2023-02-23T17:32:59.388Z,85.70
2023-02-23T17:35:27.303Z,97.88
2023-02-23T17:37:55.000Z,84.05
2023-02-23T17:40:29.559Z,99.15
2023-02-23T17:42:58.045Z,89.97
2023-02-23T17:45:26.142Z,96.13
2023-02-23T17:48:09.948Z,90.47
2023-02-23T17:50:37.732Z,98.15
2023-02-23T17:53:06.858Z,108.40
2023-02-23T17:55:38.812Z,103.03
2023-02-23T17:58:11.647Z,103.22
2023-02-23T18:00:46.625Z,112.47
2023-02-23T18:03:16.014Z,123.70
2023-02-23T18:05:42.553Z,105.32
2023-02-23T18:08:09.121Z,109.50
2023-02-23T18:10:38.031Z,98.95
2023-02-23T18:13:08.079Z,126.72
2023-02-23T18:15:34.741Z,109.50
2023-02-23T18:18:07.112Z,130.10
2023-02-23T18:20:38.967Z,119.03
2023-02-23T18:23:05.630Z,122.68
2023-02-23T18:25:37.027Z,116.63
2023-02-23T18:28:04.573Z,111.22
2023-02-23T18:30:31.239Z,126.20
2023-02-23T18:33:04.589Z,118.65
2023-02-23T18:35:47.153Z,121.95
2023-02-23T18:38:14.838Z,100.40
2023-02-23T18:40:41.947Z,122.07
2023-02-23T18:43:11.040Z,134.38
2023-02-23T18:45:38.035Z,117.95
2023-02-23T18:48:06.845Z,121.05
2023-02-23T18:50:38.766Z,109.80
2023-02-23T18:53:06.254Z,123.22
2023-02-23T18:55:34.379Z,134.85
2023-02-23T18:58:06.080Z,121.60
2023-02-23T19:03:09.830Z,113.63
2023-02-23T19:05:38.001Z,124.45
2023-02-23T19:08:08.869Z,114.55
2023-02-23T19:10:36.736Z,124.38
2023-02-23T19:13:04.002Z,121.32
2023-02-23T19:15:33.940Z,120.43
2023-02-23T19:18:01.062Z,95.25
2023-02-23T19:20:34.820Z,102.53
2023-02-23T19:23:03.270Z,112.60
2023-02-23T19:25:32.064Z,102.93
2023-02-23T19:28:04.337Z,107.07
2023-02-23T19:30:30.911Z,85.22
2023-02-23T19:33:03.666Z,92.47
2023-02-23T19:35:30.760Z,88.70
2023-02-23T19:37:58.435Z,84.18
2023-02-23T19:40:29.257Z,92.10
2023-02-23T19:42:55.901Z,47.53
2023-02-23T19:45:25.044Z,44.20
2023-02-23T19:47:57.505Z,61.15
2023-02-23T19:50:24.200Z,52.13
2023-02-23T19:52:52.934Z,49.10
2023-02-23T19:55:31.766Z,61.63
2023-02-23T19:57:59.941Z,62.33
2023-02-23T20:00:35.404Z,55.53
2023-02-23T20:03:07.377Z,61.40
2023-02-23T20:05:45.070Z,69.18
2023-02-23T20:08:21.434Z,62.75
2023-02-23T20:10:48.005Z,79.38
2023-02-23T20:13:15.010Z,80.32
2023-02-23T20:15:41.490Z,67.60
2023-02-23T20:18:08.398Z,68.93
2023-02-23T20:20:35.985Z,85.30
2023-02-23T20:23:07.643Z,84.38
2023-02-23T20:25:42.845Z,73.00
2023-02-23T20:28:09.441Z,94.75
2023-02-23T20:30:36.544Z,83.85
2023-02-23T20:33:11.927Z,98.53
2023-02-23T20:35:38.680Z,89.43
2023-02-23T20:38:05.540Z,87.82
2023-02-23T20:40:32.654Z,87.18
2023-02-23T20:43:02.582Z,90.40
2023-02-23T20:45:31.259Z,96.00
2023-02-23T20:47:58.137Z,98.10
2023-02-23T20:50:29.423Z,92.53
2023-02-23T20:53:06.217Z,99.95
2023-02-23T20:55:34.172Z,91.05
2023-02-23T20:58:02.197Z,95.38
2023-02-23T21:00:30.732Z,93.05
2023-02-23T21:02:58.673Z,88.57
2023-02-23T21:05:32.830Z,95.25
2023-02-23T21:08:05.172Z,95.60
2023-02-23T21:10:36.414Z,103.65
2023-02-23T21:13:03.793Z,95.57
2023-02-23T21:15:32.441Z,95.40
2023-02-23T21:17:59.531Z,104.22
2023-02-23T21:20:33.221Z,104.18
2023-02-23T21:23:07.672Z,117.15
2023-02-23T21:25:34.997Z,98.85
2023-02-23T21:28:02.023Z,100.22
2023-02-23T21:30:29.893Z,105.07
2023-02-23T21:33:00.539Z,95.97
2023-02-23T21:35:27.771Z,109.65
2023-02-23T21:37:54.836Z,108.85
2023-02-23T21:40:22.216Z,101.22
2023-02-23T21:42:49.607Z,103.32
2023-02-23T21:45:17.417Z,99.07
2023-02-23T21:47:47.414Z,100.60
2023-02-23T21:50:17.241Z,104.35
2023-02-23T21:52:47.108Z,83.70
2023-02-23T21:55:23.582Z,103.72
2023-02-23T21:57:52.210Z,100.30
2023-02-23T22:00:21.940Z,83.75
2023-02-23T22:02:50.949Z,89.47
2023-02-23T22:08:02.070Z,80.45
2023-02-23T22:10:31.846Z,106.85
2023-02-23T22:13:00.166Z,84.25
2023-02-23T22:15:28.281Z,77.95
2023-02-23T22:18:00.008Z,86.72
2023-02-23T22:20:26.578Z,91.10
2023-02-23T22:22:54.981Z,82.13
2023-02-23T22:25:22.055Z,86.55
2023-02-23T22:27:51.929Z,89.60
2023-02-23T22:30:23.035Z,85.93
2023-02-23T22:32:49.977Z,86.43
2023-02-23T22:35:18.317Z,105.85
2023-02-23T22:37:45.240Z,84.65
2023-02-23T22:40:13.663Z,87.68
2023-02-23T22:42:43.588Z,90.30
2023-02-23T22:45:11.294Z,86.43
2023-02-23T22:47:38.966Z,88.05
2023-02-23T22:50:07.260Z,86.60
2023-02-23T22:52:35.226Z,87.90
2023-02-23T22:55:03.793Z,88.43
2023-02-23T22:57:30.557Z,84.55
2023-02-23T23:00:05.972Z,85.97
2023-02-23T23:02:34.085Z,72.95
2023-02-23T23:05:02.661Z,82.15
2023-02-23T23:07:31.594Z,88.05
2023-02-23T23:09:58.841Z,92.13
2023-02-23T23:12:27.882Z,85.05
2023-02-23T23:14:56.344Z,82.75
2023-02-23T23:17:25.137Z,92.72
2023-02-23T23:19:52.090Z,75.63
2023-02-23T23:22:20.270Z,72.68
2023-02-23T23:24:49.088Z,64.28
2023-02-23T23:27:15.966Z,77.47
2023-02-23T23:32:34.287Z,76.50
2023-02-23T23:35:03.184Z,76.05
2023-02-23T23:37:30.964Z,75.53
2023-02-23T23:40:00.099Z,76.47
2023-02-23T23:42:27.049Z,74.78
2023-02-23T23:44:57.143Z,65.20
2023-02-23T23:47:23.813Z,64.90
2023-02-23T23:49:50.455Z,73.93
2023-02-23T23:52:17.878Z,86.30
2023-02-23T23:54:44.961Z,71.40
2023-02-23T23:57:12.723Z,76.28
2023-02-23T23:59:45.880Z,67.95
